sensor_id;sensor_type;location;lat;lon;timestamp;temperature;humidity
11836;DHT22;5977;51.972;7.640;2023-06-22T00:00:27;27.10;69.70
11836;DHT22;5977;51.972;7.640;2023-06-22T00:02:56;27.10;69.80
11836;DHT22;5977;51.972;7.640;2023-06-22T00:05:25;27.20;69.90
11836;DHT22;5977;51.972;7.640;2023-06-22T00:07:54;27.10;69.70
11836;DHT22;5977;51.972;7.640;2023-06-22T00:10:22;27.10;69.90
11836;DHT22;5977;51.972;7.640;2023-06-22T00:12:49;27.10;70.00
11836;DHT22;5977;51.972;7.640;2023-06-22T00:15:17;27.10;70.00
11836;DHT22;5977;51.972;7.640;2023-06-22T00:17:45;27.10;70.10
11836;DHT22;5977;51.972;7.640;2023-06-22T00:20:13;27.10;70.10
11836;DHT22;5977;51.972;7.640;2023-06-22T00:22:43;27.10;70.10
11836;DHT22;5977;51.972;7.640;2023-06-22T00:25:11;27.00;69.90
11836;DHT22;5977;51.972;7.640;2023-06-22T00:27:39;27.10;70.00
11836;DHT22;5977;51.972;7.640;2023-06-22T00:30:08;27.10;70.20
11836;DHT22;5977;51.972;7.640;2023-06-22T00:32:36;27.00;70.10
11836;DHT22;5977;51.972;7.640;2023-06-22T00:35:04;27.10;70.30
11836;DHT22;5977;51.972;7.640;2023-06-22T00:37:32;27.00;70.10
11836;DHT22;5977;51.972;7.640;2023-06-22T00:40:02;27.10;70.30
11836;DHT22;5977;51.972;7.640;2023-06-22T00:42:30;27.00;70.10
11836;DHT22;5977;51.972;7.640;2023-06-22T00:44:58;27.00;70.30
11836;DHT22;5977;51.972;7.640;2023-06-22T00:47:26;27.10;70.40
11836;DHT22;5977;51.972;7.640;2023-06-22T00:49:55;27.00;70.30
11836;DHT22;5977;51.972;7.640;2023-06-22T00:52:25;27.00;70.30
11836;DHT22;5977;51.972;7.640;2023-06-22T00:54:56;27.00;70.30
11836;DHT22;5977;51.972;7.640;2023-06-22T00:57:27;27.00;70.30
11836;DHT22;5977;51.972;7.640;2023-06-22T00:59:55;27.00;70.30
11836;DHT22;5977;51.972;7.640;2023-06-22T01:02:23;27.00;70.40
11836;DHT22;5977;51.972;7.640;2023-06-22T01:04:51;27.00;70.50
11836;DHT22;5977;51.972;7.640;2023-06-22T01:07:29;27.00;70.50
11836;DHT22;5977;51.972;7.640;2023-06-22T01:10:11;27.00;70.30
11836;DHT22;5977;51.972;7.640;2023-06-22T01:12:47;27.10;70.30
11836;DHT22;5977;51.972;7.640;2023-06-22T01:15:21;27.00;70.30
11836;DHT22;5977;51.972;7.640;2023-06-22T01:17:52;27.00;70.30
11836;DHT22;5977;51.972;7.640;2023-06-22T01:20:22;27.00;70.50
11836;DHT22;5977;51.972;7.640;2023-06-22T01:23:02;27.10;70.60
11836;DHT22;5977;51.972;7.640;2023-06-22T01:25:43;27.00;70.30
11836;DHT22;5977;51.972;7.640;2023-06-22T01:28:23;27.00;70.30
11836;DHT22;5977;51.972;7.640;2023-06-22T01:30:53;27.00;70.30
11836;DHT22;5977;51.972;7.640;2023-06-22T01:33:32;27.00;70.50
11836;DHT22;5977;51.972;7.640;2023-06-22T01:36:02;27.00;70.50
11836;DHT22;5977;51.972;7.640;2023-06-22T01:38:30;27.00;70.70
11836;DHT22;5977;51.972;7.640;2023-06-22T01:40:59;27.00;70.70
11836;DHT22;5977;51.972;7.640;2023-06-22T01:43:28;27.00;70.70
11836;DHT22;5977;51.972;7.640;2023-06-22T01:46:00;27.00;70.80
11836;DHT22;5977;51.972;7.640;2023-06-22T01:48:29;27.00;70.60
11836;DHT22;5977;51.972;7.640;2023-06-22T01:50:57;27.00;70.90
11836;DHT22;5977;51.972;7.640;2023-06-22T01:53:25;27.00;70.90
11836;DHT22;5977;51.972;7.640;2023-06-22T01:55:53;27.00;71.00
11836;DHT22;5977;51.972;7.640;2023-06-22T01:58:23;27.00;71.00
11836;DHT22;5977;51.972;7.640;2023-06-22T02:00:58;27.00;70.90
11836;DHT22;5977;51.972;7.640;2023-06-22T02:03:31;27.00;70.70
11836;DHT22;5977;51.972;7.640;2023-06-22T02:06:04;27.00;70.90
11836;DHT22;5977;51.972;7.640;2023-06-22T02:08:40;27.00;70.70
11836;DHT22;5977;51.972;7.640;2023-06-22T02:11:10;27.00;70.70
11836;DHT22;5977;51.972;7.640;2023-06-22T02:13:39;27.00;70.90
11836;DHT22;5977;51.972;7.640;2023-06-22T02:16:11;27.00;71.10
11836;DHT22;5977;51.972;7.640;2023-06-22T02:18:46;27.00;71.00
11836;DHT22;5977;51.972;7.640;2023-06-22T02:21:14;27.00;70.90
11836;DHT22;5977;51.972;7.640;2023-06-22T02:23:42;27.00;71.30
11836;DHT22;5977;51.972;7.640;2023-06-22T02:26:10;27.00;71.30
11836;DHT22;5977;51.972;7.640;2023-06-22T02:28:38;27.00;71.30
11836;DHT22;5977;51.972;7.640;2023-06-22T02:31:06;27.00;71.30
11836;DHT22;5977;51.972;7.640;2023-06-22T02:33:35;27.00;71.40
11836;DHT22;5977;51.972;7.640;2023-06-22T02:36:03;27.00;71.30
11836;DHT22;5977;51.972;7.640;2023-06-22T02:38:32;26.90;71.40
11836;DHT22;5977;51.972;7.640;2023-06-22T02:41:01;26.90;71.40
11836;DHT22;5977;51.972;7.640;2023-06-22T02:43:29;26.90;71.50
11836;DHT22;5977;51.972;7.640;2023-06-22T02:45:57;27.00;71.60
11836;DHT22;5977;51.972;7.640;2023-06-22T02:48:25;26.90;71.40
11836;DHT22;5977;51.972;7.640;2023-06-22T02:50:54;27.00;71.60
11836;DHT22;5977;51.972;7.640;2023-06-22T02:53:22;26.90;71.40
11836;DHT22;5977;51.972;7.640;2023-06-22T02:55:50;27.00;71.60
11836;DHT22;5977;51.972;7.640;2023-06-22T02:58:18;26.90;71.60
11836;DHT22;5977;51.972;7.640;2023-06-22T03:00:46;26.90;71.60
11836;DHT22;5977;51.972;7.640;2023-06-22T03:03:14;26.90;71.70
11836;DHT22;5977;51.972;7.640;2023-06-22T03:05:42;26.80;71.60
11836;DHT22;5977;51.972;7.640;2023-06-22T03:08:12;26.90;71.90
11836;DHT22;5977;51.972;7.640;2023-06-22T03:10:40;26.80;71.60
11836;DHT22;5977;51.972;7.640;2023-06-22T03:13:08;26.90;71.90
11836;DHT22;5977;51.972;7.640;2023-06-22T03:15:36;26.90;71.90
11836;DHT22;5977;51.972;7.640;2023-06-22T03:18:04;26.90;71.90
11836;DHT22;5977;51.972;7.640;2023-06-22T03:20:32;26.80;71.90
11836;DHT22;5977;51.972;7.640;2023-06-22T03:23:00;26.90;72.10
11836;DHT22;5977;51.972;7.640;2023-06-22T03:25:29;26.90;72.10
11836;DHT22;5977;51.972;7.640;2023-06-22T03:27:57;26.80;71.90
11836;DHT22;5977;51.972;7.640;2023-06-22T03:30:26;26.80;72.10
11836;DHT22;5977;51.972;7.640;2023-06-22T03:32:54;26.80;72.20
11836;DHT22;5977;51.972;7.640;2023-06-22T03:35:22;26.80;72.10
11836;DHT22;5977;51.972;7.640;2023-06-22T03:37:50;26.80;72.20
11836;DHT22;5977;51.972;7.640;2023-06-22T03:40:18;26.80;72.20
11836;DHT22;5977;51.972;7.640;2023-06-22T03:42:47;26.80;72.30
11836;DHT22;5977;51.972;7.640;2023-06-22T03:45:15;26.80;72.20
11836;DHT22;5977;51.972;7.640;2023-06-22T03:47:43;26.80;72.30
11836;DHT22;5977;51.972;7.640;2023-06-22T03:50:11;26.80;72.30
11836;DHT22;5977;51.972;7.640;2023-06-22T03:52:40;26.80;72.30
11836;DHT22;5977;51.972;7.640;2023-06-22T03:55:08;26.70;72.30
11836;DHT22;5977;51.972;7.640;2023-06-22T03:57:36;26.80;72.40
11836;DHT22;5977;51.972;7.640;2023-06-22T04:00:07;26.80;72.40
11836;DHT22;5977;51.972;7.640;2023-06-22T04:02:41;26.80;72.20
11836;DHT22;5977;51.972;7.640;2023-06-22T04:05:09;26.80;72.40
11836;DHT22;5977;51.972;7.640;2023-06-22T04:07:37;26.80;72.40
11836;DHT22;5977;51.972;7.640;2023-06-22T04:10:06;26.80;72.50
11836;DHT22;5977;51.972;7.640;2023-06-22T04:12:38;26.80;72.50
11836;DHT22;5977;51.972;7.640;2023-06-22T04:15:09;26.70;72.50
11836;DHT22;5977;51.972;7.640;2023-06-22T04:17:39;26.80;72.50
11836;DHT22;5977;51.972;7.640;2023-06-22T04:20:08;26.80;72.70
11836;DHT22;5977;51.972;7.640;2023-06-22T04:22:36;26.70;72.60
11836;DHT22;5977;51.972;7.640;2023-06-22T04:25:05;26.70;72.80
11836;DHT22;5977;51.972;7.640;2023-06-22T04:27:34;26.80;72.90
11836;DHT22;5977;51.972;7.640;2023-06-22T04:30:05;26.70;72.90
11836;DHT22;5977;51.972;7.640;2023-06-22T04:32:35;26.80;73.00
11836;DHT22;5977;51.972;7.640;2023-06-22T04:35:04;26.70;72.80
11836;DHT22;5977;51.972;7.640;2023-06-22T04:37:33;26.80;72.90
11836;DHT22;5977;51.972;7.640;2023-06-22T04:40:01;26.80;73.00
11836;DHT22;5977;51.972;7.640;2023-06-22T04:42:30;26.80;73.00
11836;DHT22;5977;51.972;7.640;2023-06-22T04:44:58;26.80;73.00
11836;DHT22;5977;51.972;7.640;2023-06-22T04:47:28;26.90;73.00
11836;DHT22;5977;51.972;7.640;2023-06-22T04:49:57;26.80;72.90
11836;DHT22;5977;51.972;7.640;2023-06-22T04:52:25;26.90;72.70
11836;DHT22;5977;51.972;7.640;2023-06-22T04:54:53;26.90;72.80
11836;DHT22;5977;51.972;7.640;2023-06-22T04:57:26;26.90;72.80
11836;DHT22;5977;51.972;7.640;2023-06-22T04:59:59;26.90;72.70
11836;DHT22;5977;51.972;7.640;2023-06-22T05:02:38;26.90;72.70
11836;DHT22;5977;51.972;7.640;2023-06-22T05:05:08;27.00;72.70
11836;DHT22;5977;51.972;7.640;2023-06-22T05:07:42;27.00;72.50
11836;DHT22;5977;51.972;7.640;2023-06-22T05:10:11;26.90;72.50
11836;DHT22;5977;51.972;7.640;2023-06-22T05:12:40;26.90;72.40
11836;DHT22;5977;51.972;7.640;2023-06-22T05:15:08;27.00;72.60
11836;DHT22;5977;51.972;7.640;2023-06-22T05:17:37;27.00;72.70
11836;DHT22;5977;51.972;7.640;2023-06-22T05:20:12;26.90;72.50
11836;DHT22;5977;51.972;7.640;2023-06-22T05:22:40;27.00;72.50
11836;DHT22;5977;51.972;7.640;2023-06-22T05:25:10;27.00;72.70
11836;DHT22;5977;51.972;7.640;2023-06-22T05:27:38;27.00;72.60
11836;DHT22;5977;51.972;7.640;2023-06-22T05:30:08;27.00;72.70
11836;DHT22;5977;51.972;7.640;2023-06-22T05:32:36;27.00;72.60
11836;DHT22;5977;51.972;7.640;2023-06-22T05:35:04;26.90;72.70
11836;DHT22;5977;51.972;7.640;2023-06-22T05:37:34;27.00;72.70
11836;DHT22;5977;51.972;7.640;2023-06-22T05:40:02;27.00;72.60
11836;DHT22;5977;51.972;7.640;2023-06-22T05:42:30;27.00;72.60
11836;DHT22;5977;51.972;7.640;2023-06-22T05:44:58;27.00;72.60
11836;DHT22;5977;51.972;7.640;2023-06-22T05:47:26;27.10;72.70
11836;DHT22;5977;51.972;7.640;2023-06-22T05:49:54;27.00;72.70
11836;DHT22;5977;51.972;7.640;2023-06-22T05:52:22;27.00;72.70
11836;DHT22;5977;51.972;7.640;2023-06-22T05:54:51;27.00;72.70
11836;DHT22;5977;51.972;7.640;2023-06-22T05:57:19;27.00;72.50
11836;DHT22;5977;51.972;7.640;2023-06-22T05:59:48;27.00;72.70
11836;DHT22;5977;51.972;7.640;2023-06-22T06:02:16;27.00;72.70
11836;DHT22;5977;51.972;7.640;2023-06-22T06:04:44;27.20;72.40
11836;DHT22;5977;51.972;7.640;2023-06-22T06:07:12;27.40;71.80
11836;DHT22;5977;51.972;7.640;2023-06-22T06:09:40;27.60;71.40
11836;DHT22;5977;51.972;7.640;2023-06-22T06:12:09;27.60;71.00
11836;DHT22;5977;51.972;7.640;2023-06-22T06:14:37;27.70;70.80
11836;DHT22;5977;51.972;7.640;2023-06-22T06:17:05;27.60;70.90
11836;DHT22;5977;51.972;7.640;2023-06-22T06:19:33;27.70;70.90
11836;DHT22;5977;51.972;7.640;2023-06-22T06:22:01;27.60;70.80
11836;DHT22;5977;51.972;7.640;2023-06-22T06:24:29;27.50;71.10
11836;DHT22;5977;51.972;7.640;2023-06-22T06:26:57;27.50;71.40
11836;DHT22;5977;51.972;7.640;2023-06-22T06:29:26;27.40;71.50
11836;DHT22;5977;51.972;7.640;2023-06-22T06:31:54;27.40;71.50
11836;DHT22;5977;51.972;7.640;2023-06-22T06:34:23;27.30;71.60
11836;DHT22;5977;51.972;7.640;2023-06-22T06:36:51;27.30;71.50
11836;DHT22;5977;51.972;7.640;2023-06-22T06:39:18;27.30;71.50
11836;DHT22;5977;51.972;7.640;2023-06-22T06:41:47;27.30;71.60
11836;DHT22;5977;51.972;7.640;2023-06-22T06:44:15;27.30;71.60
11836;DHT22;5977;51.972;7.640;2023-06-22T06:46:44;27.30;71.60
11836;DHT22;5977;51.972;7.640;2023-06-22T06:49:12;27.30;71.40
11836;DHT22;5977;51.972;7.640;2023-06-22T06:51:40;27.30;71.60
11836;DHT22;5977;51.972;7.640;2023-06-22T06:54:08;27.30;71.70
11836;DHT22;5977;51.972;7.640;2023-06-22T06:56:36;27.30;71.70
11836;DHT22;5977;51.972;7.640;2023-06-22T06:59:04;27.30;71.70
11836;DHT22;5977;51.972;7.640;2023-06-22T07:01:32;27.20;71.80
11836;DHT22;5977;51.972;7.640;2023-06-22T07:04:04;27.20;72.10
11836;DHT22;5977;51.972;7.640;2023-06-22T07:06:32;27.30;71.90
11836;DHT22;5977;51.972;7.640;2023-06-22T07:09:00;27.30;72.10
11836;DHT22;5977;51.972;7.640;2023-06-22T07:11:29;27.30;72.60
11836;DHT22;5977;51.972;7.640;2023-06-22T07:13:56;27.30;73.60
11836;DHT22;5977;51.972;7.640;2023-06-22T07:16:24;27.30;73.40
11836;DHT22;5977;51.972;7.640;2023-06-22T07:18:54;27.40;73.10
11836;DHT22;5977;51.972;7.640;2023-06-22T07:21:23;27.40;72.90
11836;DHT22;5977;51.972;7.640;2023-06-22T07:23:51;27.40;72.60
11836;DHT22;5977;51.972;7.640;2023-06-22T07:26:20;27.40;72.60
11836;DHT22;5977;51.972;7.640;2023-06-22T07:28:48;27.40;72.60
11836;DHT22;5977;51.972;7.640;2023-06-22T07:31:17;27.30;72.60
11836;DHT22;5977;51.972;7.640;2023-06-22T07:33:45;27.30;72.60
11836;DHT22;5977;51.972;7.640;2023-06-22T07:36:13;27.40;72.50
11836;DHT22;5977;51.972;7.640;2023-06-22T07:38:42;27.30;72.40
11836;DHT22;5977;51.972;7.640;2023-06-22T07:41:10;27.40;72.30
11836;DHT22;5977;51.972;7.640;2023-06-22T07:43:38;27.40;72.40
11836;DHT22;5977;51.972;7.640;2023-06-22T07:46:06;27.40;72.50
11836;DHT22;5977;51.972;7.640;2023-06-22T07:48:37;27.40;72.50
11836;DHT22;5977;51.972;7.640;2023-06-22T07:51:05;27.30;72.20
11836;DHT22;5977;51.972;7.640;2023-06-22T07:53:33;27.40;72.50
11836;DHT22;5977;51.972;7.640;2023-06-22T07:56:04;27.30;72.50
11836;DHT22;5977;51.972;7.640;2023-06-22T07:58:33;27.30;72.40
11836;DHT22;5977;51.972;7.640;2023-06-22T08:01:01;27.30;72.60
11836;DHT22;5977;51.972;7.640;2023-06-22T08:03:30;27.20;72.40
11836;DHT22;5977;51.972;7.640;2023-06-22T08:05:58;27.20;72.40
11836;DHT22;5977;51.972;7.640;2023-06-22T08:08:26;27.30;72.70
11836;DHT22;5977;51.972;7.640;2023-06-22T08:10:54;27.30;72.70
11836;DHT22;5977;51.972;7.640;2023-06-22T08:13:23;27.30;72.70
11836;DHT22;5977;51.972;7.640;2023-06-22T08:15:51;27.30;72.50
11836;DHT22;5977;51.972;7.640;2023-06-22T08:18:19;27.20;72.50
11836;DHT22;5977;51.972;7.640;2023-06-22T08:20:47;27.30;72.60
11836;DHT22;5977;51.972;7.640;2023-06-22T08:23:16;27.30;72.60
11836;DHT22;5977;51.972;7.640;2023-06-22T08:25:45;27.30;72.60
11836;DHT22;5977;51.972;7.640;2023-06-22T08:28:14;27.20;72.50
11836;DHT22;5977;51.972;7.640;2023-06-22T08:30:43;27.30;72.60
11836;DHT22;5977;51.972;7.640;2023-06-22T08:33:11;27.30;72.50
11836;DHT22;5977;51.972;7.640;2023-06-22T08:35:48;27.30;72.60
11836;DHT22;5977;51.972;7.640;2023-06-22T08:38:16;27.30;72.50
11836;DHT22;5977;51.972;7.640;2023-06-22T08:40:45;27.40;72.50
11836;DHT22;5977;51.972;7.640;2023-06-22T08:43:14;27.30;72.30
11836;DHT22;5977;51.972;7.640;2023-06-22T08:45:43;27.40;72.30
11836;DHT22;5977;51.972;7.640;2023-06-22T08:48:12;27.40;72.40
11836;DHT22;5977;51.972;7.640;2023-06-22T08:50:39;27.40;72.40
11836;DHT22;5977;51.972;7.640;2023-06-22T08:53:08;27.40;72.30
11836;DHT22;5977;51.972;7.640;2023-06-22T08:55:36;27.40;72.20
11836;DHT22;5977;51.972;7.640;2023-06-22T08:58:04;27.50;72.10
11836;DHT22;5977;51.972;7.640;2023-06-22T09:00:33;27.70;71.80
11836;DHT22;5977;51.972;7.640;2023-06-22T09:03:03;27.80;71.50
11836;DHT22;5977;51.972;7.640;2023-06-22T09:05:31;27.80;71.30
11836;DHT22;5977;51.972;7.640;2023-06-22T09:07:59;27.70;72.20
11836;DHT22;5977;51.972;7.640;2023-06-22T09:10:27;27.70;71.50
11836;DHT22;5977;51.972;7.640;2023-06-22T09:12:57;27.70;71.60
11836;DHT22;5977;51.972;7.640;2023-06-22T09:15:24;27.70;71.60
11836;DHT22;5977;51.972;7.640;2023-06-22T09:17:53;27.70;71.70
11836;DHT22;5977;51.972;7.640;2023-06-22T09:20:23;27.70;71.70
11836;DHT22;5977;51.972;7.640;2023-06-22T09:22:51;27.70;71.70
11836;DHT22;5977;51.972;7.640;2023-06-22T09:25:18;27.70;71.80
11836;DHT22;5977;51.972;7.640;2023-06-22T09:27:47;27.70;71.80
11836;DHT22;5977;51.972;7.640;2023-06-22T09:30:15;27.70;71.80
11836;DHT22;5977;51.972;7.640;2023-06-22T09:32:43;27.80;71.90
11836;DHT22;5977;51.972;7.640;2023-06-22T09:35:11;27.80;71.80
11836;DHT22;5977;51.972;7.640;2023-06-22T09:37:41;28.10;71.40
11836;DHT22;5977;51.972;7.640;2023-06-22T09:40:10;28.30;70.50
11836;DHT22;5977;51.972;7.640;2023-06-22T09:42:40;28.40;70.50
11836;DHT22;5977;51.972;7.640;2023-06-22T09:45:09;28.80;70.40
11836;DHT22;5977;51.972;7.640;2023-06-22T09:47:37;29.00;69.40
11836;DHT22;5977;51.972;7.640;2023-06-22T09:50:06;28.90;69.50
11836;DHT22;5977;51.972;7.640;2023-06-22T09:52:34;28.70;69.70
11836;DHT22;5977;51.972;7.640;2023-06-22T09:55:15;28.60;70.20
11836;DHT22;5977;51.972;7.640;2023-06-22T09:57:43;28.40;70.50
11836;DHT22;5977;51.972;7.640;2023-06-22T10:00:12;28.40;71.20
11836;DHT22;5977;51.972;7.640;2023-06-22T10:02:41;28.30;71.20
11836;DHT22;5977;51.972;7.640;2023-06-22T10:05:10;28.10;71.40
11836;DHT22;5977;51.972;7.640;2023-06-22T10:07:38;28.10;71.80
11836;DHT22;5977;51.972;7.640;2023-06-22T10:10:10;28.00;71.90
11836;DHT22;5977;51.972;7.640;2023-06-22T10:12:41;28.00;72.20
11836;DHT22;5977;51.972;7.640;2023-06-22T10:15:10;27.90;72.00
11836;DHT22;5977;51.972;7.640;2023-06-22T10:17:39;27.90;72.40
11836;DHT22;5977;51.972;7.640;2023-06-22T10:20:08;27.90;72.40
11836;DHT22;5977;51.972;7.640;2023-06-22T10:22:39;27.80;72.30
11836;DHT22;5977;51.972;7.640;2023-06-22T10:25:08;27.90;72.40
11836;DHT22;5977;51.972;7.640;2023-06-22T10:27:36;27.90;72.50
11836;DHT22;5977;51.972;7.640;2023-06-22T10:30:09;27.90;72.60
11836;DHT22;5977;51.972;7.640;2023-06-22T10:32:38;27.90;72.50
11836;DHT22;5977;51.972;7.640;2023-06-22T10:35:06;27.90;72.60
11836;DHT22;5977;51.972;7.640;2023-06-22T10:37:35;28.00;72.80
11836;DHT22;5977;51.972;7.640;2023-06-22T10:40:05;27.90;72.80
11836;DHT22;5977;51.972;7.640;2023-06-22T10:42:34;27.90;72.80
11836;DHT22;5977;51.972;7.640;2023-06-22T10:45:02;28.00;72.90
11836;DHT22;5977;51.972;7.640;2023-06-22T10:47:32;28.00;72.70
11836;DHT22;5977;51.972;7.640;2023-06-22T10:50:00;28.10;72.60
11836;DHT22;5977;51.972;7.640;2023-06-22T10:52:28;28.00;72.70
11836;DHT22;5977;51.972;7.640;2023-06-22T10:54:56;28.00;72.90
11836;DHT22;5977;51.972;7.640;2023-06-22T10:57:24;28.00;72.90
11836;DHT22;5977;51.972;7.640;2023-06-22T10:59:52;27.90;73.10
11836;DHT22;5977;51.972;7.640;2023-06-22T11:02:20;28.00;73.10
11836;DHT22;5977;51.972;7.640;2023-06-22T11:04:49;27.90;73.10
11836;DHT22;5977;51.972;7.640;2023-06-22T11:07:17;27.90;73.00
11836;DHT22;5977;51.972;7.640;2023-06-22T11:09:46;28.00;73.10
11836;DHT22;5977;51.972;7.640;2023-06-22T11:12:14;28.00;72.90
11836;DHT22;5977;51.972;7.640;2023-06-22T11:14:42;28.10;72.70
11836;DHT22;5977;51.972;7.640;2023-06-22T11:17:09;28.10;72.60
11836;DHT22;5977;51.972;7.640;2023-06-22T11:19:37;28.20;72.50
11836;DHT22;5977;51.972;7.640;2023-06-22T11:22:07;28.10;72.30
11836;DHT22;5977;51.972;7.640;2023-06-22T11:24:35;28.10;72.00
11836;DHT22;5977;51.972;7.640;2023-06-22T11:27:03;28.20;72.20
11836;DHT22;5977;51.972;7.640;2023-06-22T11:29:32;28.30;72.20
11836;DHT22;5977;51.972;7.640;2023-06-22T11:32:05;28.40;72.10
11836;DHT22;5977;51.972;7.640;2023-06-22T11:34:33;28.40;71.90
11836;DHT22;5977;51.972;7.640;2023-06-22T11:37:01;28.40;71.70
11836;DHT22;5977;51.972;7.640;2023-06-22T11:39:31;28.50;72.00
11836;DHT22;5977;51.972;7.640;2023-06-22T11:42:08;28.40;71.90
11836;DHT22;5977;51.972;7.640;2023-06-22T11:44:36;28.40;72.00
11836;DHT22;5977;51.972;7.640;2023-06-22T11:47:05;28.30;72.20
11836;DHT22;5977;51.972;7.640;2023-06-22T11:53:49;28.30;71.80
11836;DHT22;5977;51.972;7.640;2023-06-22T11:56:18;28.20;72.50
11836;DHT22;5977;51.972;7.640;2023-06-22T11:58:46;28.20;72.60
11836;DHT22;5977;51.972;7.640;2023-06-22T12:01:14;28.20;72.90
11836;DHT22;5977;51.972;7.640;2023-06-22T12:03:44;28.10;72.80
11836;DHT22;5977;51.972;7.640;2023-06-22T12:06:38;28.10;72.70
11836;DHT22;5977;51.972;7.640;2023-06-22T12:09:08;28.10;72.90
11836;DHT22;5977;51.972;7.640;2023-06-22T12:11:38;28.10;73.10
11836;DHT22;5977;51.972;7.640;2023-06-22T12:14:06;28.10;73.00
11836;DHT22;5977;51.972;7.640;2023-06-22T12:16:33;28.10;73.20
11836;DHT22;5977;51.972;7.640;2023-06-22T12:19:01;28.00;73.20
11836;DHT22;5977;51.972;7.640;2023-06-22T12:21:29;28.00;73.30
11836;DHT22;5977;51.972;7.640;2023-06-22T12:23:57;28.00;73.50
11836;DHT22;5977;51.972;7.640;2023-06-22T12:26:25;27.90;73.50
11836;DHT22;5977;51.972;7.640;2023-06-22T12:28:55;27.90;73.70
11836;DHT22;5977;51.972;7.640;2023-06-22T12:31:22;27.90;73.60
11836;DHT22;5977;51.972;7.640;2023-06-22T12:33:50;27.80;73.80
11836;DHT22;5977;51.972;7.640;2023-06-22T12:36:18;27.80;74.00
11836;DHT22;5977;51.972;7.640;2023-06-22T12:38:46;27.80;74.00
11836;DHT22;5977;51.972;7.640;2023-06-22T12:41:14;27.80;73.90
11836;DHT22;5977;51.972;7.640;2023-06-22T12:43:42;27.80;74.00
11836;DHT22;5977;51.972;7.640;2023-06-22T12:46:11;27.80;74.10
11836;DHT22;5977;51.972;7.640;2023-06-22T12:48:39;27.80;74.00
11836;DHT22;5977;51.972;7.640;2023-06-22T12:51:09;27.80;74.20
11836;DHT22;5977;51.972;7.640;2023-06-22T12:53:37;27.80;74.20
11836;DHT22;5977;51.972;7.640;2023-06-22T12:56:05;27.70;74.20
11836;DHT22;5977;51.972;7.640;2023-06-22T12:58:33;27.60;74.30
11836;DHT22;5977;51.972;7.640;2023-06-22T13:01:01;27.60;74.40
11836;DHT22;5977;51.972;7.640;2023-06-22T13:03:30;27.60;74.60
11836;DHT22;5977;51.972;7.640;2023-06-22T13:05:58;27.50;74.50
11836;DHT22;5977;51.972;7.640;2023-06-22T13:08:26;27.60;74.90
11836;DHT22;5977;51.972;7.640;2023-06-22T13:11:01;27.50;75.10
11836;DHT22;5977;51.972;7.640;2023-06-22T13:13:29;27.50;75.30
11836;DHT22;5977;51.972;7.640;2023-06-22T13:15:57;27.50;75.60
11836;DHT22;5977;51.972;7.640;2023-06-22T13:18:25;27.40;75.70
11836;DHT22;5977;51.972;7.640;2023-06-22T13:20:54;27.40;75.90
11836;DHT22;5977;51.972;7.640;2023-06-22T13:23:22;27.40;75.80
11836;DHT22;5977;51.972;7.640;2023-06-22T13:25:50;27.40;76.00
11836;DHT22;5977;51.972;7.640;2023-06-22T13:28:18;27.30;76.00
11836;DHT22;5977;51.972;7.640;2023-06-22T13:30:54;27.40;76.10
11836;DHT22;5977;51.972;7.640;2023-06-22T13:33:22;27.40;76.20
11836;DHT22;5977;51.972;7.640;2023-06-22T13:35:50;27.40;76.20
11836;DHT22;5977;51.972;7.640;2023-06-22T13:38:20;27.40;76.20
11836;DHT22;5977;51.972;7.640;2023-06-22T13:40:49;27.40;76.00
11836;DHT22;5977;51.972;7.640;2023-06-22T13:43:17;27.40;76.10
11836;DHT22;5977;51.972;7.640;2023-06-22T13:45:45;27.50;76.30
11836;DHT22;5977;51.972;7.640;2023-06-22T13:48:13;27.40;76.30
11836;DHT22;5977;51.972;7.640;2023-06-22T13:50:41;27.40;76.70
11836;DHT22;5977;51.972;7.640;2023-06-22T13:53:09;27.50;77.20
11836;DHT22;5977;51.972;7.640;2023-06-22T13:55:38;27.50;77.00
11836;DHT22;5977;51.972;7.640;2023-06-22T13:58:07;27.50;76.70
11836;DHT22;5977;51.972;7.640;2023-06-22T14:00:34;27.50;76.50
11836;DHT22;5977;51.972;7.640;2023-06-22T14:03:02;27.50;76.50
11836;DHT22;5977;51.972;7.640;2023-06-22T14:05:30;27.50;76.40
11836;DHT22;5977;51.972;7.640;2023-06-22T14:07:58;27.50;76.30
11836;DHT22;5977;51.972;7.640;2023-06-22T14:10:26;27.50;76.30
11836;DHT22;5977;51.972;7.640;2023-06-22T14:12:56;27.50;76.20
11836;DHT22;5977;51.972;7.640;2023-06-22T14:15:24;27.50;76.00
11836;DHT22;5977;51.972;7.640;2023-06-22T14:17:52;27.50;76.10
11836;DHT22;5977;51.972;7.640;2023-06-22T14:20:20;27.50;76.00
11836;DHT22;5977;51.972;7.640;2023-06-22T14:22:48;27.60;76.00
11836;DHT22;5977;51.972;7.640;2023-06-22T14:25:16;27.60;75.90
11836;DHT22;5977;51.972;7.640;2023-06-22T14:27:44;27.50;75.70
11836;DHT22;5977;51.972;7.640;2023-06-22T14:30:13;27.50;75.70
11836;DHT22;5977;51.972;7.640;2023-06-22T14:32:43;27.50;75.50
11836;DHT22;5977;51.972;7.640;2023-06-22T14:35:11;27.50;75.50
11836;DHT22;5977;51.972;7.640;2023-06-22T14:37:39;27.50;75.70
11836;DHT22;5977;51.972;7.640;2023-06-22T14:40:07;27.50;75.70
11836;DHT22;5977;51.972;7.640;2023-06-22T14:42:35;27.60;75.70
11836;DHT22;5977;51.972;7.640;2023-06-22T14:45:04;27.50;75.50
11836;DHT22;5977;51.972;7.640;2023-06-22T14:47:33;27.60;75.40
11836;DHT22;5977;51.972;7.640;2023-06-22T14:50:01;27.60;75.10
11836;DHT22;5977;51.972;7.640;2023-06-22T14:52:29;27.70;75.20
11836;DHT22;5977;51.972;7.640;2023-06-22T14:54:57;27.70;75.10
11836;DHT22;5977;51.972;7.640;2023-06-22T14:57:25;27.70;74.90
11836;DHT22;5977;51.972;7.640;2023-06-22T14:59:53;27.70;75.60
11836;DHT22;5977;51.972;7.640;2023-06-22T15:02:22;27.70;74.80
11836;DHT22;5977;51.972;7.640;2023-06-22T15:09:10;27.70;74.30
11836;DHT22;5977;51.972;7.640;2023-06-22T15:11:37;27.70;74.70
11836;DHT22;5977;51.972;7.640;2023-06-22T15:14:05;27.70;74.80
11836;DHT22;5977;51.972;7.640;2023-06-22T15:16:35;27.70;74.90
11836;DHT22;5977;51.972;7.640;2023-06-22T15:19:03;27.60;74.90
11836;DHT22;5977;51.972;7.640;2023-06-22T15:21:31;27.60;75.00
11836;DHT22;5977;51.972;7.640;2023-06-22T15:24:00;27.50;74.90
11836;DHT22;5977;51.972;7.640;2023-06-22T15:26:30;27.50;75.10
11836;DHT22;5977;51.972;7.640;2023-06-22T15:28:58;27.60;75.00
11836;DHT22;5977;51.972;7.640;2023-06-22T15:31:26;27.50;75.10
11836;DHT22;5977;51.972;7.640;2023-06-22T15:33:54;27.50;75.00
11836;DHT22;5977;51.972;7.640;2023-06-22T15:36:22;27.50;75.10
11836;DHT22;5977;51.972;7.640;2023-06-22T15:38:50;27.50;75.10
11836;DHT22;5977;51.972;7.640;2023-06-22T15:41:18;27.50;75.00
11836;DHT22;5977;51.972;7.640;2023-06-22T15:43:47;27.60;75.10
11836;DHT22;5977;51.972;7.640;2023-06-22T15:46:15;27.60;74.90
11836;DHT22;5977;51.972;7.640;2023-06-22T15:48:44;27.60;75.00
11836;DHT22;5977;51.972;7.640;2023-06-22T15:51:15;27.60;74.90
11836;DHT22;5977;51.972;7.640;2023-06-22T15:53:43;27.60;74.90
11836;DHT22;5977;51.972;7.640;2023-06-22T15:56:11;27.60;74.90
11836;DHT22;5977;51.972;7.640;2023-06-22T15:58:39;27.60;74.80
11836;DHT22;5977;51.972;7.640;2023-06-22T16:01:08;27.70;74.90
11836;DHT22;5977;51.972;7.640;2023-06-22T16:03:36;27.60;74.70